sensor_id;sensor_type;location;lat;lon;timestamp;P1;durP1;ratioP1;P2;durP2;ratioP2
52318;SDS011;38258;51.148;14.068;2022-09-25T00:00:54;8.55;;;5.05;;
52318;SDS011;38258;51.148;14.068;2022-09-25T00:03:23;6.90;;;4.60;;
52318;SDS011;38258;51.148;14.068;2022-09-25T00:05:58;6.82;;;4.53;;
52318;SDS011;38258;51.148;14.068;2022-09-25T00:08:26;7.50;;;4.88;;
52318;SDS011;38258;51.148;14.068;2022-09-25T00:10:53;9.80;;;5.20;;
52318;SDS011;38258;51.148;14.068;2022-09-25T00:13:19;10.32;;;5.03;;
52318;SDS011;38258;51.148;14.068;2022-09-25T00:15:47;9.40;;;5.32;;
52318;SDS011;38258;51.148;14.068;2022-09-25T00:18:14;8.20;;;5.00;;
52318;SDS011;38258;51.148;14.068;2022-09-25T00:21:04;9.27;;;4.57;;
52318;SDS011;38258;51.148;14.068;2022-09-25T00:23:30;6.65;;;4.25;;
52318;SDS011;38258;51.148;14.068;2022-09-25T00:25:57;8.93;;;5.38;;
52318;SDS011;38258;51.148;14.068;2022-09-25T00:28:24;6.38;;;4.13;;
52318;SDS011;38258;51.148;14.068;2022-09-25T00:30:51;8.88;;;4.95;;
52318;SDS011;38258;51.148;14.068;2022-09-25T00:33:18;9.25;;;5.07;;
52318;SDS011;38258;51.148;14.068;2022-09-25T00:35:44;9.10;;;4.72;;
52318;SDS011;38258;51.148;14.068;2022-09-25T00:38:12;7.97;;;4.47;;
52318;SDS011;38258;51.148;14.068;2022-09-25T00:40:38;6.28;;;4.35;;
52318;SDS011;38258;51.148;14.068;2022-09-25T00:43:08;7.80;;;5.25;;
52318;SDS011;38258;51.148;14.068;2022-09-25T00:45:38;7.55;;;4.40;;
52318;SDS011;38258;51.148;14.068;2022-09-25T00:48:06;6.88;;;4.45;;
52318;SDS011;38258;51.148;14.068;2022-09-25T00:50:37;7.03;;;4.45;;
52318;SDS011;38258;51.148;14.068;2022-09-25T00:53:13;7.93;;;4.78;;
52318;SDS011;38258;51.148;14.068;2022-09-25T00:55:43;7.28;;;4.57;;
52318;SDS011;38258;51.148;14.068;2022-09-25T00:58:10;9.75;;;4.90;;
52318;SDS011;38258;51.148;14.068;2022-09-25T01:00:40;7.13;;;4.68;;
52318;SDS011;38258;51.148;14.068;2022-09-25T01:03:07;7.50;;;4.75;;
52318;SDS011;38258;51.148;14.068;2022-09-25T01:05:34;8.88;;;4.88;;
52318;SDS011;38258;51.148;14.068;2022-09-25T01:08:04;7.28;;;4.72;;
52318;SDS011;38258;51.148;14.068;2022-09-25T01:10:35;7.93;;;4.57;;
52318;SDS011;38258;51.148;14.068;2022-09-25T01:13:02;7.63;;;4.40;;
52318;SDS011;38258;51.148;14.068;2022-09-25T01:15:30;6.97;;;4.68;;
52318;SDS011;38258;51.148;14.068;2022-09-25T01:18:08;7.68;;;4.95;;
52318;SDS011;38258;51.148;14.068;2022-09-25T01:20:47;8.00;;;4.68;;
52318;SDS011;38258;51.148;14.068;2022-09-25T01:23:30;6.90;;;4.70;;
52318;SDS011;38258;51.148;14.068;2022-09-25T01:26:34;7.63;;;4.60;;
52318;SDS011;38258;51.148;14.068;2022-09-25T01:29:17;7.28;;;4.32;;
52318;SDS011;38258;51.148;14.068;2022-09-25T01:31:48;8.57;;;4.72;;
52318;SDS011;38258;51.148;14.068;2022-09-25T01:34:25;8.70;;;5.30;;
52318;SDS011;38258;51.148;14.068;2022-09-25T01:36:59;8.38;;;4.57;;
52318;SDS011;38258;51.148;14.068;2022-09-25T01:39:33;8.95;;;4.57;;
52318;SDS011;38258;51.148;14.068;2022-09-25T01:42:04;9.55;;;5.05;;
52318;SDS011;38258;51.148;14.068;2022-09-25T01:44:38;8.40;;;5.13;;
52318;SDS011;38258;51.148;14.068;2022-09-25T01:47:12;6.93;;;4.50;;
52318;SDS011;38258;51.148;14.068;2022-09-25T01:49:45;7.85;;;4.72;;
52318;SDS011;38258;51.148;14.068;2022-09-25T01:52:16;10.02;;;4.40;;
52318;SDS011;38258;51.148;14.068;2022-09-25T01:54:48;8.10;;;4.93;;
52318;SDS011;38258;51.148;14.068;2022-09-25T01:57:18;8.93;;;4.88;;
52318;SDS011;38258;51.148;14.068;2022-09-25T01:59:51;8.07;;;5.00;;
52318;SDS011;38258;51.148;14.068;2022-09-25T02:02:22;9.50;;;4.63;;
52318;SDS011;38258;51.148;14.068;2022-09-25T02:04:52;7.70;;;4.75;;
52318;SDS011;38258;51.148;14.068;2022-09-25T02:07:23;8.15;;;5.18;;
52318;SDS011;38258;51.148;14.068;2022-09-25T02:09:53;7.93;;;4.90;;
52318;SDS011;38258;51.148;14.068;2022-09-25T02:12:24;8.15;;;4.60;;
52318;SDS011;38258;51.148;14.068;2022-09-25T02:15:00;8.15;;;4.90;;
52318;SDS011;38258;51.148;14.068;2022-09-25T02:17:33;7.95;;;5.25;;
52318;SDS011;38258;51.148;14.068;2022-09-25T02:20:23;7.68;;;4.45;;
52318;SDS011;38258;51.148;14.068;2022-09-25T02:23:00;7.85;;;4.93;;
52318;SDS011;38258;51.148;14.068;2022-09-25T02:25:35;6.45;;;4.38;;
52318;SDS011;38258;51.148;14.068;2022-09-25T02:28:06;9.13;;;5.13;;
52318;SDS011;38258;51.148;14.068;2022-09-25T02:30:34;8.57;;;4.75;;
52318;SDS011;38258;51.148;14.068;2022-09-25T02:33:01;6.68;;;4.68;;
52318;SDS011;38258;51.148;14.068;2022-09-25T02:35:28;8.60;;;4.75;;
52318;SDS011;38258;51.148;14.068;2022-09-25T02:37:55;7.15;;;4.55;;
52318;SDS011;38258;51.148;14.068;2022-09-25T02:40:24;9.43;;;4.65;;
52318;SDS011;38258;51.148;14.068;2022-09-25T02:45:29;10.45;;;4.88;;
52318;SDS011;38258;51.148;14.068;2022-09-25T02:48:06;7.28;;;4.45;;
52318;SDS011;38258;51.148;14.068;2022-09-25T02:50:41;7.88;;;4.88;;
52318;SDS011;38258;51.148;14.068;2022-09-25T02:53:16;8.48;;;5.03;;
52318;SDS011;38258;51.148;14.068;2022-09-25T02:55:47;7.95;;;4.88;;
52318;SDS011;38258;51.148;14.068;2022-09-25T02:58:18;10.27;;;4.60;;
52318;SDS011;38258;51.148;14.068;2022-09-25T03:00:51;7.10;;;4.40;;
52318;SDS011;38258;51.148;14.068;2022-09-25T03:03:21;8.35;;;5.05;;
52318;SDS011;38258;51.148;14.068;2022-09-25T03:05:51;7.00;;;4.55;;
52318;SDS011;38258;51.148;14.068;2022-09-25T03:08:21;8.45;;;5.13;;
52318;SDS011;38258;51.148;14.068;2022-09-25T03:13:33;6.90;;;4.60;;
52318;SDS011;38258;51.148;14.068;2022-09-25T03:16:03;7.07;;;4.57;;
52318;SDS011;38258;51.148;14.068;2022-09-25T03:18:33;7.07;;;4.50;;
52318;SDS011;38258;51.148;14.068;2022-09-25T03:21:00;7.82;;;4.72;;
52318;SDS011;38258;51.148;14.068;2022-09-25T03:23:28;8.43;;;4.93;;
52318;SDS011;38258;51.148;14.068;2022-09-25T03:25:55;9.32;;;4.85;;
52318;SDS011;38258;51.148;14.068;2022-09-25T03:28:22;8.40;;;5.57;;
52318;SDS011;38258;51.148;14.068;2022-09-25T03:30:56;8.05;;;5.10;;
52318;SDS011;38258;51.148;14.068;2022-09-25T03:33:26;7.60;;;4.95;;
52318;SDS011;38258;51.148;14.068;2022-09-25T03:36:01;9.02;;;5.50;;
52318;SDS011;38258;51.148;14.068;2022-09-25T03:38:32;10.27;;;5.38;;
52318;SDS011;38258;51.148;14.068;2022-09-25T03:40:59;8.50;;;5.18;;
52318;SDS011;38258;51.148;14.068;2022-09-25T03:43:26;8.38;;;5.25;;
52318;SDS011;38258;51.148;14.068;2022-09-25T03:45:53;9.15;;;5.07;;
52318;SDS011;38258;51.148;14.068;2022-09-25T03:48:20;8.90;;;5.28;;
52318;SDS011;38258;51.148;14.068;2022-09-25T03:50:48;6.85;;;4.85;;
52318;SDS011;38258;51.148;14.068;2022-09-25T03:53:15;8.50;;;5.07;;
52318;SDS011;38258;51.148;14.068;2022-09-25T03:55:43;8.13;;;5.45;;
52318;SDS011;38258;51.148;14.068;2022-09-25T03:58:13;7.82;;;4.97;;
52318;SDS011;38258;51.148;14.068;2022-09-25T04:00:40;8.98;;;5.32;;
52318;SDS011;38258;51.148;14.068;2022-09-25T04:03:07;7.82;;;4.43;;
52318;SDS011;38258;51.148;14.068;2022-09-25T04:05:34;9.05;;;5.30;;
52318;SDS011;38258;51.148;14.068;2022-09-25T04:08:02;9.15;;;4.93;;
52318;SDS011;38258;51.148;14.068;2022-09-25T04:10:29;10.52;;;5.53;;
52318;SDS011;38258;51.148;14.068;2022-09-25T04:12:56;9.35;;;5.47;;
52318;SDS011;38258;51.148;14.068;2022-09-25T04:15:23;8.23;;;5.15;;
52318;SDS011;38258;51.148;14.068;2022-09-25T04:17:50;7.70;;;5.25;;
52318;SDS011;38258;51.148;14.068;2022-09-25T04:20:18;8.85;;;5.63;;
52318;SDS011;38258;51.148;14.068;2022-09-25T04:22:45;9.45;;;5.47;;
52318;SDS011;38258;51.148;14.068;2022-09-25T04:25:13;8.30;;;5.45;;
52318;SDS011;38258;51.148;14.068;2022-09-25T04:27:40;10.30;;;5.60;;
52318;SDS011;38258;51.148;14.068;2022-09-25T04:30:08;8.25;;;4.88;;
52318;SDS011;38258;51.148;14.068;2022-09-25T04:32:35;8.40;;;5.18;;
52318;SDS011;38258;51.148;14.068;2022-09-25T04:37:46;6.90;;;4.65;;
52318;SDS011;38258;51.148;14.068;2022-09-25T04:40:14;7.93;;;5.28;;
52318;SDS011;38258;51.148;14.068;2022-09-25T04:42:41;9.85;;;5.40;;
52318;SDS011;38258;51.148;14.068;2022-09-25T04:45:08;8.98;;;5.70;;
52318;SDS011;38258;51.148;14.068;2022-09-25T04:47:35;8.73;;;5.10;;
52318;SDS011;38258;51.148;14.068;2022-09-25T04:50:02;9.93;;;5.78;;
52318;SDS011;38258;51.148;14.068;2022-09-25T04:52:29;8.05;;;5.68;;
52318;SDS011;38258;51.148;14.068;2022-09-25T04:54:56;8.75;;;5.30;;
52318;SDS011;38258;51.148;14.068;2022-09-25T04:57:25;8.93;;;5.80;;
52318;SDS011;38258;51.148;14.068;2022-09-25T04:59:52;7.95;;;5.60;;
52318;SDS011;38258;51.148;14.068;2022-09-25T05:02:19;8.60;;;5.70;;
52318;SDS011;38258;51.148;14.068;2022-09-25T05:04:45;9.63;;;5.80;;
52318;SDS011;38258;51.148;14.068;2022-09-25T05:07:12;7.57;;;5.07;;
52318;SDS011;38258;51.148;14.068;2022-09-25T05:09:39;8.25;;;5.45;;
52318;SDS011;38258;51.148;14.068;2022-09-25T05:12:05;8.80;;;5.45;;
52318;SDS011;38258;51.148;14.068;2022-09-25T05:14:33;9.02;;;5.45;;
52318;SDS011;38258;51.148;14.068;2022-09-25T05:17:00;8.82;;;5.70;;
52318;SDS011;38258;51.148;14.068;2022-09-25T05:19:27;8.65;;;5.88;;
52318;SDS011;38258;51.148;14.068;2022-09-25T05:21:54;9.55;;;5.72;;
52318;SDS011;38258;51.148;14.068;2022-09-25T05:24:20;9.88;;;5.60;;
52318;SDS011;38258;51.148;14.068;2022-09-25T05:26:47;8.55;;;5.45;;
52318;SDS011;38258;51.148;14.068;2022-09-25T05:29:14;7.85;;;4.90;;
52318;SDS011;38258;51.148;14.068;2022-09-25T05:31:42;7.82;;;5.05;;
52318;SDS011;38258;51.148;14.068;2022-09-25T05:34:11;9.25;;;5.43;;
52318;SDS011;38258;51.148;14.068;2022-09-25T05:36:38;8.65;;;5.55;;
52318;SDS011;38258;51.148;14.068;2022-09-25T05:39:05;8.00;;;5.63;;
52318;SDS011;38258;51.148;14.068;2022-09-25T05:41:31;9.48;;;6.00;;
52318;SDS011;38258;51.148;14.068;2022-09-25T05:43:59;9.80;;;6.05;;
52318;SDS011;38258;51.148;14.068;2022-09-25T05:46:31;9.50;;;5.25;;
52318;SDS011;38258;51.148;14.068;2022-09-25T05:48:59;8.10;;;5.50;;
52318;SDS011;38258;51.148;14.068;2022-09-25T05:51:27;10.95;;;6.50;;
52318;SDS011;38258;51.148;14.068;2022-09-25T05:53:54;13.32;;;7.45;;
52318;SDS011;38258;51.148;14.068;2022-09-25T05:56:21;10.93;;;6.07;;
52318;SDS011;38258;51.148;14.068;2022-09-25T05:58:49;12.02;;;6.88;;
52318;SDS011;38258;51.148;14.068;2022-09-25T06:01:17;12.00;;;7.70;;
52318;SDS011;38258;51.148;14.068;2022-09-25T06:03:44;11.15;;;7.85;;
52318;SDS011;38258;51.148;14.068;2022-09-25T06:06:13;11.73;;;8.70;;
52318;SDS011;38258;51.148;14.068;2022-09-25T06:08:39;9.68;;;6.57;;
52318;SDS011;38258;51.148;14.068;2022-09-25T06:11:06;11.40;;;6.32;;
52318;SDS011;38258;51.148;14.068;2022-09-25T06:13:33;11.98;;;6.97;;
52318;SDS011;38258;51.148;14.068;2022-09-25T06:16:01;11.45;;;6.85;;
52318;SDS011;38258;51.148;14.068;2022-09-25T06:18:29;10.55;;;7.38;;
52318;SDS011;38258;51.148;14.068;2022-09-25T06:20:58;11.73;;;7.25;;
52318;SDS011;38258;51.148;14.068;2022-09-25T06:23:28;11.20;;;6.97;;
52318;SDS011;38258;51.148;14.068;2022-09-25T06:25:58;10.18;;;6.63;;
52318;SDS011;38258;51.148;14.068;2022-09-25T06:28:25;13.18;;;7.70;;
52318;SDS011;38258;51.148;14.068;2022-09-25T06:30:52;11.85;;;8.02;;
52318;SDS011;38258;51.148;14.068;2022-09-25T06:33:19;10.75;;;7.60;;
52318;SDS011;38258;51.148;14.068;2022-09-25T06:35:46;12.48;;;7.72;;
52318;SDS011;38258;51.148;14.068;2022-09-25T06:38:14;11.45;;;7.43;;
52318;SDS011;38258;51.148;14.068;2022-09-25T06:40:43;15.50;;;8.80;;
52318;SDS011;38258;51.148;14.068;2022-09-25T06:43:10;11.25;;;7.35;;
52318;SDS011;38258;51.148;14.068;2022-09-25T06:45:38;11.02;;;6.97;;
52318;SDS011;38258;51.148;14.068;2022-09-25T06:48:06;11.18;;;7.35;;
52318;SDS011;38258;51.148;14.068;2022-09-25T06:50:36;11.05;;;7.03;;
52318;SDS011;38258;51.148;14.068;2022-09-25T06:53:06;9.70;;;6.25;;
52318;SDS011;38258;51.148;14.068;2022-09-25T06:55:35;11.63;;;6.38;;
52318;SDS011;38258;51.148;14.068;2022-09-25T06:58:04;11.57;;;6.75;;
52318;SDS011;38258;51.148;14.068;2022-09-25T07:00:32;10.80;;;7.10;;
52318;SDS011;38258;51.148;14.068;2022-09-25T07:03:00;9.48;;;6.30;;
52318;SDS011;38258;51.148;14.068;2022-09-25T07:05:45;9.52;;;6.53;;
52318;SDS011;38258;51.148;14.068;2022-09-25T07:08:13;11.02;;;6.85;;
52318;SDS011;38258;51.148;14.068;2022-09-25T07:10:45;10.95;;;6.70;;
52318;SDS011;38258;51.148;14.068;2022-09-25T07:13:16;10.43;;;6.10;;
52318;SDS011;38258;51.148;14.068;2022-09-25T07:15:50;9.02;;;5.70;;
52318;SDS011;38258;51.148;14.068;2022-09-25T07:18:21;8.70;;;5.82;;
52318;SDS011;38258;51.148;14.068;2022-09-25T07:20:49;9.45;;;5.85;;
52318;SDS011;38258;51.148;14.068;2022-09-25T07:23:17;9.65;;;6.50;;
52318;SDS011;38258;51.148;14.068;2022-09-25T07:25:45;8.93;;;5.82;;
52318;SDS011;38258;51.148;14.068;2022-09-25T07:28:14;8.20;;;5.85;;
52318;SDS011;38258;51.148;14.068;2022-09-25T07:30:45;10.23;;;5.90;;
52318;SDS011;38258;51.148;14.068;2022-09-25T07:33:12;9.90;;;6.55;;
52318;SDS011;38258;51.148;14.068;2022-09-25T07:35:39;10.68;;;6.72;;
52318;SDS011;38258;51.148;14.068;2022-09-25T07:38:06;12.20;;;7.53;;
52318;SDS011;38258;51.148;14.068;2022-09-25T07:40:33;11.80;;;7.20;;
52318;SDS011;38258;51.148;14.068;2022-09-25T07:42:59;11.52;;;7.20;;
52318;SDS011;38258;51.148;14.068;2022-09-25T07:45:27;11.80;;;6.93;;
52318;SDS011;38258;51.148;14.068;2022-09-25T07:47:56;11.18;;;7.15;;
52318;SDS011;38258;51.148;14.068;2022-09-25T07:50:24;10.73;;;7.00;;
52318;SDS011;38258;51.148;14.068;2022-09-25T07:52:51;11.98;;;7.47;;
52318;SDS011;38258;51.148;14.068;2022-09-25T07:55:18;10.98;;;7.20;;
52318;SDS011;38258;51.148;14.068;2022-09-25T07:57:46;10.63;;;7.07;;
52318;SDS011;38258;51.148;14.068;2022-09-25T08:00:15;12.20;;;7.10;;
52318;SDS011;38258;51.148;14.068;2022-09-25T08:02:42;13.07;;;7.25;;
52318;SDS011;38258;51.148;14.068;2022-09-25T08:05:10;11.80;;;7.10;;
52318;SDS011;38258;51.148;14.068;2022-09-25T08:07:37;10.57;;;6.65;;
52318;SDS011;38258;51.148;14.068;2022-09-25T08:10:03;10.05;;;6.93;;
52318;SDS011;38258;51.148;14.068;2022-09-25T08:12:31;10.65;;;7.15;;
52318;SDS011;38258;51.148;14.068;2022-09-25T08:14:57;10.40;;;7.22;;
52318;SDS011;38258;51.148;14.068;2022-09-25T08:17:23;9.20;;;6.47;;
52318;SDS011;38258;51.148;14.068;2022-09-25T08:19:55;10.18;;;6.70;;
52318;SDS011;38258;51.148;14.068;2022-09-25T08:22:23;10.98;;;6.70;;
52318;SDS011;38258;51.148;14.068;2022-09-25T08:24:49;11.52;;;7.28;;
52318;SDS011;38258;51.148;14.068;2022-09-25T08:27:16;9.38;;;6.38;;
52318;SDS011;38258;51.148;14.068;2022-09-25T08:29:42;9.73;;;6.40;;
52318;SDS011;38258;51.148;14.068;2022-09-25T08:32:10;10.57;;;6.63;;
52318;SDS011;38258;51.148;14.068;2022-09-25T08:34:36;10.88;;;6.82;;
52318;SDS011;38258;51.148;14.068;2022-09-25T08:37:03;10.32;;;6.82;;
52318;SDS011;38258;51.148;14.068;2022-09-25T08:39:33;9.73;;;6.95;;
52318;SDS011;38258;51.148;14.068;2022-09-25T08:41:59;10.45;;;6.88;;
52318;SDS011;38258;51.148;14.068;2022-09-25T08:44:27;12.30;;;7.28;;
52318;SDS011;38258;51.148;14.068;2022-09-25T08:46:57;11.32;;;7.35;;
52318;SDS011;38258;51.148;14.068;2022-09-25T08:49:45;10.70;;;7.35;;
52318;SDS011;38258;51.148;14.068;2022-09-25T08:52:17;10.48;;;6.85;;
52318;SDS011;38258;51.148;14.068;2022-09-25T08:54:48;9.52;;;7.03;;
52318;SDS011;38258;51.148;14.068;2022-09-25T08:57:20;10.88;;;7.78;;
52318;SDS011;38258;51.148;14.068;2022-09-25T08:59:54;11.07;;;7.80;;
52318;SDS011;38258;51.148;14.068;2022-09-25T09:02:25;11.45;;;7.90;;
52318;SDS011;38258;51.148;14.068;2022-09-25T09:05:02;13.20;;;9.00;;
52318;SDS011;38258;51.148;14.068;2022-09-25T09:07:33;12.68;;;8.52;;
52318;SDS011;38258;51.148;14.068;2022-09-25T09:10:06;13.07;;;8.20;;
52318;SDS011;38258;51.148;14.068;2022-09-25T09:12:42;13.63;;;8.90;;
52318;SDS011;38258;51.148;14.068;2022-09-25T09:15:15;11.45;;;8.10;;
52318;SDS011;38258;51.148;14.068;2022-09-25T09:17:47;12.23;;;8.18;;
52318;SDS011;38258;51.148;14.068;2022-09-25T09:20:15;18.05;;;11.02;;
52318;SDS011;38258;51.148;14.068;2022-09-25T09:22:45;49.67;;;27.13;;
52318;SDS011;38258;51.148;14.068;2022-09-25T09:25:21;43.53;;;21.63;;
52318;SDS011;38258;51.148;14.068;2022-09-25T09:28:01;17.33;;;10.52;;
52318;SDS011;38258;51.148;14.068;2022-09-25T09:30:40;15.30;;;9.55;;
52318;SDS011;38258;51.148;14.068;2022-09-25T09:33:21;27.55;;;14.65;;
52318;SDS011;38258;51.148;14.068;2022-09-25T09:36:01;14.20;;;9.20;;
52318;SDS011;38258;51.148;14.068;2022-09-25T09:38:35;12.35;;;8.15;;
52318;SDS011;38258;51.148;14.068;2022-09-25T09:41:15;12.07;;;7.40;;
52318;SDS011;38258;51.148;14.068;2022-09-25T09:43:57;12.48;;;7.95;;
52318;SDS011;38258;51.148;14.068;2022-09-25T09:46:33;11.35;;;7.88;;
52318;SDS011;38258;51.148;14.068;2022-09-25T09:49:08;10.27;;;7.60;;
52318;SDS011;38258;51.148;14.068;2022-09-25T09:51:39;11.57;;;7.40;;
52318;SDS011;38258;51.148;14.068;2022-09-25T09:54:14;10.43;;;7.00;;
52318;SDS011;38258;51.148;14.068;2022-09-25T09:56:47;10.60;;;7.18;;
52318;SDS011;38258;51.148;14.068;2022-09-25T09:59:17;10.05;;;7.57;;
52318;SDS011;38258;51.148;14.068;2022-09-25T10:01:53;11.20;;;7.95;;
52318;SDS011;38258;51.148;14.068;2022-09-25T10:04:27;11.50;;;7.22;;
52318;SDS011;38258;51.148;14.068;2022-09-25T10:07:00;11.07;;;7.88;;
52318;SDS011;38258;51.148;14.068;2022-09-25T10:09:29;13.40;;;8.00;;
52318;SDS011;38258;51.148;14.068;2022-09-25T10:11:58;11.57;;;7.95;;
52318;SDS011;38258;51.148;14.068;2022-09-25T10:14:29;11.38;;;8.18;;
52318;SDS011;38258;51.148;14.068;2022-09-25T10:16:58;10.20;;;7.10;;
52318;SDS011;38258;51.148;14.068;2022-09-25T10:19:27;10.63;;;7.32;;
52318;SDS011;38258;51.148;14.068;2022-09-25T10:24:45;10.43;;;6.93;;
52318;SDS011;38258;51.148;14.068;2022-09-25T10:27:20;10.38;;;7.78;;
52318;SDS011;38258;51.148;14.068;2022-09-25T10:29:59;10.32;;;7.38;;
52318;SDS011;38258;51.148;14.068;2022-09-25T10:32:27;11.50;;;7.05;;
52318;SDS011;38258;51.148;14.068;2022-09-25T10:34:54;9.38;;;7.47;;
52318;SDS011;38258;51.148;14.068;2022-09-25T10:37:21;9.50;;;7.13;;
52318;SDS011;38258;51.148;14.068;2022-09-25T10:39:58;11.43;;;7.80;;
52318;SDS011;38258;51.148;14.068;2022-09-25T10:42:33;9.45;;;7.18;;
52318;SDS011;38258;51.148;14.068;2022-09-25T10:45:22;10.27;;;7.25;;
52318;SDS011;38258;51.148;14.068;2022-09-25T10:47:54;10.05;;;7.43;;
52318;SDS011;38258;51.148;14.068;2022-09-25T10:50:39;9.23;;;6.90;;
52318;SDS011;38258;51.148;14.068;2022-09-25T10:53:09;10.60;;;7.63;;
52318;SDS011;38258;51.148;14.068;2022-09-25T10:55:53;12.77;;;7.72;;
52318;SDS011;38258;51.148;14.068;2022-09-25T10:58:29;10.30;;;7.05;;
52318;SDS011;38258;51.148;14.068;2022-09-25T11:03:27;9.98;;;6.93;;
52318;SDS011;38258;51.148;14.068;2022-09-25T11:06:00;10.70;;;7.00;;
52318;SDS011;38258;51.148;14.068;2022-09-25T11:08:32;10.32;;;7.07;;
52318;SDS011;38258;51.148;14.068;2022-09-25T11:11:03;12.05;;;7.50;;
52318;SDS011;38258;51.148;14.068;2022-09-25T11:13:37;9.00;;;6.95;;
52318;SDS011;38258;51.148;14.068;2022-09-25T11:16:11;9.05;;;6.80;;
52318;SDS011;38258;51.148;14.068;2022-09-25T11:18:39;9.10;;;7.10;;
52318;SDS011;38258;51.148;14.068;2022-09-25T11:21:20;9.63;;;6.95;;
52318;SDS011;38258;51.148;14.068;2022-09-25T11:23:57;9.40;;;6.70;;
52318;SDS011;38258;51.148;14.068;2022-09-25T11:26:31;7.93;;;6.10;;
52318;SDS011;38258;51.148;14.068;2022-09-25T11:29:11;7.93;;;5.97;;
52318;SDS011;38258;51.148;14.068;2022-09-25T11:31:45;9.68;;;7.13;;
52318;SDS011;38258;51.148;14.068;2022-09-25T11:34:18;9.93;;;6.95;;
52318;SDS011;38258;51.148;14.068;2022-09-25T11:36:52;10.20;;;6.50;;
52318;SDS011;38258;51.148;14.068;2022-09-25T11:39:28;9.23;;;6.15;;
52318;SDS011;38258;51.148;14.068;2022-09-25T11:42:20;9.02;;;6.70;;
52318;SDS011;38258;51.148;14.068;2022-09-25T11:44:57;8.65;;;6.63;;
52318;SDS011;38258;51.148;14.068;2022-09-25T11:47:30;10.07;;;6.60;;
52318;SDS011;38258;51.148;14.068;2022-09-25T11:50:04;8.05;;;6.55;;
52318;SDS011;38258;51.148;14.068;2022-09-25T11:52:37;10.43;;;7.35;;
52318;SDS011;38258;51.148;14.068;2022-09-25T11:55:31;8.68;;;6.60;;
52318;SDS011;38258;51.148;14.068;2022-09-25T11:58:11;8.80;;;6.13;;
52318;SDS011;38258;51.148;14.068;2022-09-25T12:00:54;7.70;;;6.00;;
52318;SDS011;38258;51.148;14.068;2022-09-25T12:03:32;6.40;;;5.00;;
52318;SDS011;38258;51.148;14.068;2022-09-25T12:06:09;7.18;;;5.45;;
52318;SDS011;38258;51.148;14.068;2022-09-25T12:08:52;7.32;;;5.70;;
52318;SDS011;38258;51.148;14.068;2022-09-25T12:11:29;8.05;;;5.82;;
52318;SDS011;38258;51.148;14.068;2022-09-25T12:14:07;7.65;;;5.47;;
52318;SDS011;38258;51.148;14.068;2022-09-25T12:16:43;10.23;;;6.30;;
52318;SDS011;38258;51.148;14.068;2022-09-25T12:19:18;7.00;;;5.47;;
52318;SDS011;38258;51.148;14.068;2022-09-25T12:21:54;8.32;;;5.60;;
52318;SDS011;38258;51.148;14.068;2022-09-25T12:24:32;7.85;;;5.28;;
52318;SDS011;38258;51.148;14.068;2022-09-25T12:27:08;7.72;;;5.50;;
52318;SDS011;38258;51.148;14.068;2022-09-25T12:29:45;7.20;;;5.15;;
52318;SDS011;38258;51.148;14.068;2022-09-25T12:32:26;5.82;;;4.40;;
52318;SDS011;38258;51.148;14.068;2022-09-25T12:35:07;7.78;;;4.85;;
52318;SDS011;38258;51.148;14.068;2022-09-25T12:37:48;6.05;;;4.85;;
52318;SDS011;38258;51.148;14.068;2022-09-25T12:40:20;7.65;;;4.80;;
52318;SDS011;38258;51.148;14.068;2022-09-25T12:42:54;9.95;;;4.72;;
52318;SDS011;38258;51.148;14.068;2022-09-25T12:45:24;6.10;;;4.65;;
52318;SDS011;38258;51.148;14.068;2022-09-25T12:48:02;7.68;;;5.20;;
52318;SDS011;38258;51.148;14.068;2022-09-25T12:50:37;7.93;;;5.38;;
52318;SDS011;38258;51.148;14.068;2022-09-25T12:53:10;5.85;;;4.47;;
52318;SDS011;38258;51.148;14.068;2022-09-25T12:55:48;6.07;;;4.80;;
52318;SDS011;38258;51.148;14.068;2022-09-25T12:58:19;6.82;;;4.70;;
52318;SDS011;38258;51.148;14.068;2022-09-25T13:00:54;6.15;;;4.38;;
52318;SDS011;38258;51.148;14.068;2022-09-25T13:03:27;8.20;;;5.07;;
52318;SDS011;38258;51.148;14.068;2022-09-25T13:06:06;6.72;;;4.65;;
52318;SDS011;38258;51.148;14.068;2022-09-25T13:08:36;5.78;;;3.88;;
52318;SDS011;38258;51.148;14.068;2022-09-25T13:11:07;4.75;;;3.83;;
52318;SDS011;38258;51.148;14.068;2022-09-25T13:16:09;4.78;;;3.67;;
52318;SDS011;38258;51.148;14.068;2022-09-25T13:18:38;5.30;;;3.70;;
52318;SDS011;38258;51.148;14.068;2022-09-25T13:21:22;5.55;;;3.97;;
52318;SDS011;38258;51.148;14.068;2022-09-25T13:23:51;5.38;;;4.07;;
52318;SDS011;38258;51.148;14.068;2022-09-25T13:26:20;4.85;;;3.70;;
52318;SDS011;38258;51.148;14.068;2022-09-25T13:28:50;5.60;;;4.05;;
52318;SDS011;38258;51.148;14.068;2022-09-25T13:31:21;4.95;;;3.78;;
52318;SDS011;38258;51.148;14.068;2022-09-25T13:34:02;5.63;;;3.90;;
52318;SDS011;38258;51.148;14.068;2022-09-25T13:36:33;6.85;;;4.00;;
52318;SDS011;38258;51.148;14.068;2022-09-25T13:39:05;5.43;;;4.30;;
52318;SDS011;38258;51.148;14.068;2022-09-25T13:44:37;5.43;;;4.22;;
52318;SDS011;38258;51.148;14.068;2022-09-25T13:47:31;6.03;;;4.18;;
52318;SDS011;38258;51.148;14.068;2022-09-25T14:02:25;5.43;;;3.92;;
52318;SDS011;38258;51.148;14.068;2022-09-25T14:05:07;5.47;;;4.50;;
52318;SDS011;38258;51.148;14.068;2022-09-25T14:07:39;6.55;;;4.78;;
52318;SDS011;38258;51.148;14.068;2022-09-25T14:10:07;7.15;;;4.60;;
52318;SDS011;38258;51.148;14.068;2022-09-25T14:12:39;5.70;;;4.35;;
52318;SDS011;38258;51.148;14.068;2022-09-25T14:15:22;5.60;;;4.40;;
52318;SDS011;38258;51.148;14.068;2022-09-25T14:17:52;8.65;;;4.72;;
52318;SDS011;38258;51.148;14.068;2022-09-25T14:20:25;7.88;;;4.88;;
52318;SDS011;38258;51.148;14.068;2022-09-25T14:22:59;6.93;;;4.63;;
52318;SDS011;38258;51.148;14.068;2022-09-25T14:25:30;7.57;;;4.85;;
52318;SDS011;38258;51.148;14.068;2022-09-25T14:28:01;6.80;;;5.00;;
52318;SDS011;38258;51.148;14.068;2022-09-25T14:30:29;8.25;;;5.40;;
52318;SDS011;38258;51.148;14.068;2022-09-25T14:35:58;6.47;;;4.90;;
52318;SDS011;38258;51.148;14.068;2022-09-25T14:41:42;6.80;;;5.20;;
52318;SDS011;38258;51.148;14.068;2022-09-25T14:44:41;6.43;;;4.88;;
52318;SDS011;38258;51.148;14.068;2022-09-25T14:47:21;7.22;;;5.40;;
52318;SDS011;38258;51.148;14.068;2022-09-25T14:49:55;6.97;;;5.15;;
52318;SDS011;38258;51.148;14.068;2022-09-25T14:52:24;7.38;;;4.95;;
52318;SDS011;38258;51.148;14.068;2022-09-25T14:54:57;6.65;;;4.65;;
52318;SDS011;38258;51.148;14.068;2022-09-25T14:57:26;8.57;;;5.07;;
52318;SDS011;38258;51.148;14.068;2022-09-25T15:00:02;6.78;;;5.05;;
52318;SDS011;38258;51.148;14.068;2022-09-25T15:02:32;9.98;;;4.85;;
52318;SDS011;38258;51.148;14.068;2022-09-25T15:05:17;6.15;;;4.80;;
52318;SDS011;38258;51.148;14.068;2022-09-25T15:07:55;5.78;;;4.40;;
52318;SDS011;38258;51.148;14.068;2022-09-25T15:10:27;5.70;;;4.63;;
52318;SDS011;38258;51.148;14.068;2022-09-25T15:13:03;5.93;;;4.45;;
52318;SDS011;38258;51.148;14.068;2022-09-25T15:15:33;6.88;;;4.65;;
52318;SDS011;38258;51.148;14.068;2022-09-25T15:18:01;5.85;;;4.32;;
52318;SDS011;38258;51.148;14.068;2022-09-25T15:20:29;6.57;;;4.80;;
52318;SDS011;38258;51.148;14.068;2022-09-25T15:22:58;6.75;;;5.18;;
52318;SDS011;38258;51.148;14.068;2022-09-25T15:25:30;6.75;;;4.95;;
52318;SDS011;38258;51.148;14.068;2022-09-25T15:27:59;7.57;;;5.18;;
52318;SDS011;38258;51.148;14.068;2022-09-25T15:30:30;7.50;;;5.10;;
52318;SDS011;38258;51.148;14.068;2022-09-25T15:33:00;8.52;;;5.10;;